Time,TemperatureF,DewpointF,PressureIn,WindDirection,WindDirectionDegrees,WindSpeedMPH,WindSpeedGustMPH,Humidity,HourlyPrecipIn,Conditions,Clouds,dailyrainin,SoftwareType,DateUTC
2013-03-05 00:21:00,49.0,6.0,29.98,WSW,240,3.0,-999.0,16,-99.99,,,-99.99,,2013-03-05 00:21:00,
2013-03-05 01:21:00,49.0,5.0,29.97,SSE,150,5.0,-999.0,16,-99.99,,,-99.99,,2013-03-05 01:21:00,
2013-03-05 01:32:00,49.0,5.0,29.97,SSE,150,5.0,-999.0,16,-99.99,,,-99.99,,2013-03-05 01:32:00,
2013-03-05 02:21:00,49.0,30.0,29.98,South,190,15.0,-999.0,47,-99.99,,,-99.99,,2013-03-05 02:21:00,
2013-03-05 02:31:00,49.0,30.0,29.98,South,190,15.0,-999.0,47,-99.99,,,-99.99,,2013-03-05 02:31:00,
2013-03-05 03:00:00,47.0,37.0,29.95,South,170,13.0,-999.0,68,-99.99,,,-99.99,,2013-03-05 03:00:00,
2013-03-05 03:21:00,47.0,37.0,29.95,South,170,13.0,-999.0,68,-99.99,,,-99.99,,2013-03-05 03:21:00,
2013-03-05 03:31:00,47.0,37.0,29.95,South,170,13.0,-999.0,68,-99.99,,,-99.99,,2013-03-05 03:31:00,
2013-03-05 03:41:00,47.0,37.0,29.95,South,170,13.0,-999.0,68,-99.99,,,-99.99,,2013-03-05 03:41:00,
2013-03-05 03:51:00,47.0,37.0,29.95,South,170,13.0,-999.0,68,-99.99,,,-99.99,,2013-03-05 03:51:00,
2013-03-05 04:21:00,46.0,34.0,29.94,South,180,33.0,-999.0,61,-99.99,,,-99.99,,2013-03-05 04:21:00,
2013-03-05 04:31:00,46.0,34.0,29.94,South,180,33.0,-999.0,61,-99.99,,,-99.99,,2013-03-05 04:31:00,
2013-03-05 06:21:00,47.0,30.0,29.91,South,170,25.0,-999.0,52,-99.99,,,-99.99,,2013-03-05 06:21:00,
2013-03-05 06:31:00,47.0,30.0,29.91,South,170,25.0,-999.0,52,-99.99,,,-99.99,,2013-03-05 06:31:00,
2013-03-05 07:21:00,48.0,30.0,29.88,SSE,160,26.0,-999.0,49,-99.99,,,-99.99,,2013-03-05 07:21:00,
2013-03-05 08:21:00,48.0,36.0,29.86,SSE,160,24.0,-999.0,64,-99.99,,,-99.99,,2013-03-05 08:21:00,
2013-03-05 08:31:00,48.0,36.0,29.86,SSE,160,24.0,-999.0,64,-99.99,,,-99.99,,2013-03-05 08:31:00,
2013-03-05 09:00:00,44.0,40.0,29.82,SSE,150,34.0,-999.0,85,-99.99,,,-99.99,,2013-03-05 09:00:00,
2013-03-05 09:21:00,44.0,40.0,29.82,SSE,150,34.0,-999.0,85,-99.99,,,-99.99,,2013-03-05 09:21:00,
2013-03-05 09:31:00,44.0,40.0,29.82,SSE,150,34.0,-999.0,85,-99.99,,,-99.99,,2013-03-05 09:31:00,
2013-03-05 09:42:00,44.0,40.0,29.82,SSE,150,34.0,-999.0,85,-99.99,,,-99.99,,2013-03-05 09:42:00,
2013-03-05 09:51:00,44.0,40.0,29.82,SSE,150,34.0,-999.0,85,-99.99,,,-99.99,,2013-03-05 09:51:00,
2013-03-05 10:00:00,43.0,40.0,29.83,SSE,150,29.0,-999.0,88,-99.99,,,-99.99,,2013-03-05 10:00:00,
2013-03-05 10:21:00,43.0,40.0,29.83,SSE,150,29.0,-999.0,88,-99.99,,,-99.99,,2013-03-05 10:21:00,
2013-03-05 10:31:00,43.0,40.0,29.83,SSE,150,29.0,-999.0,88,-99.99,,,-99.99,,2013-03-05 10:31:00,
2013-03-05 10:41:00,43.0,40.0,29.83,SSE,150,29.0,-999.0,88,-99.99,,,-99.99,,2013-03-05 10:41:00,
2013-03-05 10:51:00,43.0,40.0,29.83,SSE,150,29.0,-999.0,88,-99.99,,,-99.99,,2013-03-05 10:51:00,
2013-03-05 11:00:00,42.0,38.0,29.82,SSE,160,26.0,-999.0,85,-99.99,,,-99.99,,2013-03-05 11:00:00,
2013-03-05 11:21:00,42.0,38.0,29.82,SSE,160,26.0,-999.0,85,-99.99,,,-99.99,,2013-03-05 11:21:00,
2013-03-05 11:32:00,42.0,38.0,29.82,SSE,160,26.0,-999.0,85,-99.99,,,-99.99,,2013-03-05 11:32:00,
2013-03-05 11:41:00,42.0,38.0,29.82,SSE,160,26.0,-999.0,85,-99.99,,,-99.99,,2013-03-05 11:41:00,
2013-03-05 11:52:00,42.0,38.0,29.82,SSE,160,26.0,-999.0,85,-99.99,,,-99.99,,2013-03-05 11:52:00,
2013-03-05 12:22:00,42.0,35.0,29.81,SE,140,18.0,-999.0,74,-99.99,,,-99.99,,2013-03-05 12:22:00,
2013-03-05 12:32:00,42.0,35.0,29.81,SE,140,18.0,-999.0,74,-99.99,,,-99.99,,2013-03-05 12:32:00,
2013-03-05 13:00:00,43.0,37.0,29.82,SE,140,16.0,-999.0,81,-99.99,,,-99.99,,2013-03-05 13:00:00,
2013-03-05 13:21:00,43.0,37.0,29.82,SE,140,16.0,-999.0,81,-99.99,,,-99.99,,2013-03-05 13:21:00,
2013-03-05 13:31:00,43.0,37.0,29.82,SE,140,16.0,-999.0,81,-99.99,,,-99.99,,2013-03-05 13:31:00,
2013-03-05 13:41:00,43.0,37.0,29.82,SE,140,16.0,-999.0,81,-99.99,,,-99.99,,2013-03-05 13:41:00,
2013-03-05 13:51:00,43.0,37.0,29.82,SE,140,16.0,-999.0,81,-99.99,,,-99.99,,2013-03-05 13:51:00,
2013-03-05 14:00:00,43.0,39.0,29.80,SSE,150,18.0,-999.0,83,-99.99,,,-99.99,,2013-03-05 14:00:00,
2013-03-05 14:21:00,43.0,39.0,29.80,SSE,150,18.0,-999.0,83,-99.99,,,-99.99,,2013-03-05 14:21:00,
2013-03-05 14:31:00,43.0,39.0,29.80,SSE,150,18.0,-999.0,83,-99.99,,,-99.99,,2013-03-05 14:31:00,
2013-03-05 14:41:00,43.0,39.0,29.80,SSE,150,18.0,-999.0,83,-99.99,,,-99.99,,2013-03-05 14:41:00,
2013-03-05 14:52:00,43.0,39.0,29.80,SSE,150,18.0,-999.0,83,-99.99,,,-99.99,,2013-03-05 14:52:00,
2013-03-05 15:00:00,43.0,37.0,29.82,South,180,17.0,-999.0,79,-99.99,,,-99.99,,2013-03-05 15:00:00,
2013-03-05 15:21:00,43.0,37.0,29.82,South,180,17.0,-999.0,79,-99.99,,,-99.99,,2013-03-05 15:21:00,
2013-03-05 15:31:00,43.0,37.0,29.82,South,180,17.0,-999.0,79,-99.99,,,-99.99,,2013-03-05 15:31:00,
2013-03-05 15:42:00,43.0,37.0,29.82,South,180,17.0,-999.0,79,-99.99,,,-99.99,,2013-03-05 15:42:00,
2013-03-05 15:51:00,43.0,37.0,29.82,South,180,17.0,-999.0,79,-99.99,,,-99.99,,2013-03-05 15:51:00,
2013-03-05 16:00:00,42.0,38.0,29.82,SSE,150,17.0,-999.0,84,-99.99,,,-99.99,,2013-03-05 16:00:00,
2013-03-05 16:21:00,42.0,38.0,29.82,SSE,150,17.0,-999.0,84,-99.99,,,-99.99,,2013-03-05 16:21:00,
2013-03-05 16:31:00,42.0,38.0,29.82,SSE,150,17.0,-999.0,84,-99.99,,,-99.99,,2013-03-05 16:31:00,
2013-03-05 16:41:00,42.0,38.0,29.82,SSE,150,17.0,-999.0,84,-99.99,,,-99.99,,2013-03-05 16:41:00,
2013-03-05 16:51:00,42.0,38.0,29.82,SSE,150,17.0,-999.0,84,-99.99,,,-99.99,,2013-03-05 16:51:00,
2013-03-05 17:00:00,42.0,38.0,29.83,SSE,150,16.0,-999.0,85,-99.99,,,-99.99,,2013-03-05 17:00:00,
2013-03-05 17:21:00,42.0,38.0,29.83,SSE,150,16.0,-999.0,85,-99.99,,,-99.99,,2013-03-05 17:21:00,
2013-03-05 17:31:00,42.0,38.0,29.83,SSE,150,16.0,-999.0,85,-99.99,,,-99.99,,2013-03-05 17:31:00,
2013-03-05 17:41:00,42.0,38.0,29.83,SSE,150,16.0,-999.0,85,-99.99,,,-99.99,,2013-03-05 17:41:00,
2013-03-05 17:52:00,42.0,38.0,29.83,SSE,150,16.0,-999.0,85,-99.99,,,-99.99,,2013-03-05 17:52:00,
2013-03-05 18:00:00,44.0,39.0,29.83,SSE,150,11.0,-999.0,83,-99.99,,,-99.99,,2013-03-05 18:00:00,
2013-03-05 18:31:00,44.0,39.0,29.83,SSE,150,11.0,-999.0,83,-99.99,,,-99.99,,2013-03-05 18:31:00,
2013-03-05 18:41:00,44.0,39.0,29.83,SSE,150,11.0,-999.0,83,-99.99,,,-99.99,,2013-03-05 18:41:00,
2013-03-05 18:52:00,44.0,39.0,29.83,SSE,150,11.0,-999.0,83,-99.99,,,-99.99,,2013-03-05 18:52:00,
2013-03-05 19:00:00,45.0,37.0,29.83,North,-999,-999.0,-999.0,73,-99.99,,,-99.99,,2013-03-05 19:00:00,
2013-03-05 19:21:00,45.0,37.0,29.83,North,-999,-999.0,-999.0,73,-99.99,,,-99.99,,2013-03-05 19:21:00,
2013-03-05 19:31:00,45.0,37.0,29.83,North,-999,-999.0,-999.0,73,-99.99,,,-99.99,,2013-03-05 19:31:00,
2013-03-05 19:41:00,45.0,37.0,29.83,North,-999,-999.0,-999.0,73,-99.99,,,-99.99,,2013-03-05 19:41:00,
2013-03-05 19:51:00,45.0,37.0,29.83,North,-999,-999.0,-999.0,73,-99.99,,,-99.99,,2013-03-05 19:51:00,
2013-03-05 20:52:00,44.0,33.0,29.83,SSE,150,15.0,-999.0,63,-99.99,,,-99.99,,2013-03-05 20:52:00,
2013-03-05 21:21:00,44.0,36.0,29.83,SSE,150,8.0,-999.0,74,-99.99,,,-99.99,,2013-03-05 21:21:00,
2013-03-05 21:31:00,44.0,36.0,29.83,SSE,150,8.0,-999.0,74,-99.99,,,-99.99,,2013-03-05 21:31:00,
2013-03-05 22:21:00,44.0,35.0,29.80,SE,140,13.0,-999.0,71,-99.99,,,-99.99,,2013-03-05 22:21:00,
2013-03-05 22:31:00,44.0,35.0,29.80,SE,140,13.0,-999.0,71,-99.99,,,-99.99,,2013-03-05 22:31:00,
2013-03-05 23:00:00,43.0,36.0,29.80,SE,130,13.0,-999.0,76,-99.99,,,-99.99,,2013-03-05 23:00:00,
2013-03-05 23:21:00,43.0,36.0,29.80,SE,130,13.0,-999.0,76,-99.99,,,-99.99,,2013-03-05 23:21:00,
2013-03-05 23:32:00,43.0,36.0,29.80,SE,130,13.0,-999.0,76,-99.99,,,-99.99,,2013-03-05 23:32:00,
2013-03-05 23:52:00,43.0,36.0,29.80,SE,130,13.0,-999.0,76,-99.99,,,-99.99,,2013-03-05 23:52:00,